Time,TemperatureF,DewpointF,PressureIn,WindDirection,WindDirectionDegrees,WindSpeedMPH,WindSpeedGustMPH,Humidity,HourlyPrecipIn,Conditions,Clouds,dailyrainin,SoftwareType,DateUTC
2013-06-26 00:00:00,69.5,68.3,29.88,SW,221,5.0,6.0,96,0.00,,,0.05,Wunderground v.1.15,2013-06-26 05:00:00,
2013-06-26 00:05:00,69.6,68.4,29.87,SW,217,5.0,6.0,96,0.00,,,0.05,Wunderground v.1.15,2013-06-26 05:05:00,
2013-06-26 00:10:00,69.8,68.9,29.87,SW,221,5.0,8.0,97,0.05,,,0.06,Wunderground v.1.15,2013-06-26 05:10:00,
2013-06-26 00:20:00,70.2,69.3,29.85,SW,227,6.0,6.0,97,0.04,,,0.00,Wunderground v.1.15,2013-06-26 05:20:00,
2013-06-26 00:25:00,70.4,69.5,29.84,SSW,209,6.0,6.0,97,0.00,,,0.01,Wunderground v.1.15,2013-06-26 05:25:00,
2013-06-26 00:30:00,70.5,69.6,29.84,SW,217,6.0,8.0,97,0.00,,,0.01,Wunderground v.1.15,2013-06-26 05:30:00,
2013-06-26 00:35:00,70.7,69.5,29.85,SW,215,7.0,10.0,96,0.00,,,0.01,Wunderground v.1.15,2013-06-26 05:35:00,
2013-06-26 00:40:00,70.8,69.6,29.84,SW,221,6.0,7.0,96,0.00,,,0.01,Wunderground v.1.15,2013-06-26 05:40:00,
2013-06-26 00:50:00,71.1,69.9,29.83,SW,217,4.0,4.0,96,0.00,,,0.01,Wunderground v.1.15,2013-06-26 05:50:00,
2013-06-26 00:55:00,71.0,69.5,29.83,SW,217,4.0,4.0,95,0.00,,,0.01,Wunderground v.1.15,2013-06-26 05:55:00,
2013-06-26 01:00:00,70.8,69.3,29.83,SW,217,3.0,4.0,95,0.00,,,0.01,Wunderground v.1.15,2013-06-26 06:00:00,
2013-06-26 01:05:00,70.7,68.9,29.83,SW,219,4.0,4.0,94,0.00,,,0.01,Wunderground v.1.15,2013-06-26 06:05:00,
2013-06-26 01:10:00,70.5,68.7,29.83,SW,221,4.0,6.0,94,0.00,,,0.01,Wunderground v.1.15,2013-06-26 06:10:00,
2013-06-26 01:15:00,70.3,68.5,29.83,SW,225,4.0,6.0,94,0.00,,,0.01,Wunderground v.1.15,2013-06-26 06:15:00,
2013-06-26 01:25:00,69.9,67.5,29.83,SW,222,5.0,5.0,92,0.00,,,0.01,Wunderground v.1.15,2013-06-26 06:25:00,
2013-06-26 01:30:00,70.0,67.6,29.83,SW,217,5.0,5.0,92,0.00,,,0.01,Wunderground v.1.15,2013-06-26 06:30:00,
2013-06-26 01:35:00,70.2,67.8,29.83,SSW,207,5.0,5.0,92,0.00,,,0.01,Wunderground v.1.15,2013-06-26 06:35:00,
2013-06-26 01:40:00,70.5,68.1,29.82,SW,216,6.0,6.0,92,0.00,,,0.01,Wunderground v.1.15,2013-06-26 06:40:00,
2013-06-26 01:45:00,70.7,68.6,29.82,SW,217,6.0,6.0,93,0.00,,,0.01,Wunderground v.1.15,2013-06-26 06:45:00,
2013-06-26 01:55:00,71.3,69.2,29.82,SSW,206,6.0,6.0,93,0.00,,,0.01,Wunderground v.1.15,2013-06-26 06:55:00,
2013-06-26 02:00:00,71.5,69.7,29.82,SW,224,6.0,6.0,94,0.00,,,0.01,Wunderground v.1.15,2013-06-26 07:00:00,
2013-06-26 02:05:00,71.6,69.8,29.82,SW,222,6.0,9.0,94,0.00,,,0.01,Wunderground v.1.15,2013-06-26 07:05:00,
2013-06-26 02:10:00,71.8,70.0,29.82,SW,215,6.0,6.0,94,0.00,,,0.01,Wunderground v.1.15,2013-06-26 07:10:00,
2013-06-26 02:15:00,72.0,70.2,29.82,SSW,209,5.0,7.0,94,0.00,,,0.01,Wunderground v.1.15,2013-06-26 07:15:00,
2013-06-26 02:20:00,72.0,69.9,29.82,SW,218,5.0,5.0,93,0.00,,,0.01,Wunderground v.1.15,2013-06-26 07:20:00,
2013-06-26 02:25:00,72.1,70.0,29.81,SSW,211,6.0,7.0,93,0.00,,,0.01,Wunderground v.1.15,2013-06-26 07:25:00,
2013-06-26 02:30:00,72.0,69.9,29.81,SSW,205,7.0,7.0,93,0.00,,,0.01,Wunderground v.1.15,2013-06-26 07:30:00,
2013-06-26 02:35:00,71.9,69.8,29.81,SSW,205,7.0,7.0,93,0.00,,,0.01,Wunderground v.1.15,2013-06-26 07:35:00,
2013-06-26 02:40:00,71.7,69.6,29.81,SW,229,7.0,9.0,93,0.00,,,0.01,Wunderground v.1.15,2013-06-26 07:40:00,
2013-06-26 02:45:00,71.6,69.5,29.81,SW,216,7.0,9.0,93,0.00,,,0.01,Wunderground v.1.15,2013-06-26 07:45:00,
2013-06-26 02:50:00,71.4,69.3,29.81,SW,222,7.0,7.0,93,0.00,,,0.01,Wunderground v.1.15,2013-06-26 07:50:00,
2013-06-26 03:00:00,71.3,69.5,29.81,SSW,211,6.0,6.0,94,0.00,,,0.01,Wunderground v.1.15,2013-06-26 08:00:00,
2013-06-26 03:05:00,71.3,69.5,29.81,WSW,238,6.0,12.0,94,0.00,,,0.01,Wunderground v.1.15,2013-06-26 08:05:00,
2013-06-26 03:10:00,71.3,69.5,29.80,SSW,202,6.0,6.0,94,0.00,,,0.01,Wunderground v.1.15,2013-06-26 08:10:00,
2013-06-26 03:15:00,71.3,69.5,29.80,SSW,198,6.0,6.0,94,0.00,,,0.01,Wunderground v.1.15,2013-06-26 08:15:00,
2013-06-26 03:25:00,71.4,69.6,29.80,SSW,211,7.0,11.0,94,0.00,,,0.01,Wunderground v.1.15,2013-06-26 08:25:00,
2013-06-26 03:30:00,71.4,69.6,29.80,SW,215,7.0,7.0,94,0.00,,,0.01,Wunderground v.1.15,2013-06-26 08:30:00,
2013-06-26 03:35:00,71.4,69.6,29.79,SW,229,6.0,13.0,94,0.00,,,0.01,Wunderground v.1.15,2013-06-26 08:35:00,
2013-06-26 03:40:00,71.4,69.6,29.79,SW,218,6.0,6.0,94,0.00,,,0.01,Wunderground v.1.15,2013-06-26 08:40:00,
2013-06-26 03:45:00,71.4,69.6,29.79,SSW,211,6.0,6.0,94,0.00,,,0.01,Wunderground v.1.15,2013-06-26 08:45:00,
2013-06-26 03:50:00,71.3,69.5,29.79,SSW,207,6.0,6.0,94,0.00,,,0.01,Wunderground v.1.15,2013-06-26 08:50:00,
2013-06-26 03:55:00,71.4,69.9,29.79,SW,227,6.0,6.0,95,0.00,,,0.01,Wunderground v.1.15,2013-06-26 08:55:00,
2013-06-26 04:05:00,71.5,70.0,29.79,SW,221,6.0,8.0,95,0.00,,,0.01,Wunderground v.1.15,2013-06-26 09:05:00,
2013-06-26 04:10:00,71.6,70.1,29.79,SW,220,6.0,6.0,95,0.00,,,0.01,Wunderground v.1.15,2013-06-26 09:10:00,
2013-06-26 04:15:00,71.9,70.4,29.79,SSW,204,7.0,8.0,95,0.00,,,0.01,Wunderground v.1.15,2013-06-26 09:15:00,
2013-06-26 04:20:00,71.9,70.1,29.79,SW,222,6.0,6.0,94,0.00,,,0.01,Wunderground v.1.15,2013-06-26 09:20:00,
2013-06-26 04:25:00,71.9,70.4,29.79,SSW,205,6.0,8.0,95,0.00,,,0.01,Wunderground v.1.15,2013-06-26 09:25:00,
2013-06-26 04:35:00,72.0,70.2,29.79,SSW,211,6.0,6.0,94,0.00,,,0.01,Wunderground v.1.15,2013-06-26 09:35:00,
2013-06-26 04:40:00,72.0,70.5,29.79,SW,219,6.0,6.0,95,0.00,,,0.01,Wunderground v.1.15,2013-06-26 09:40:00,
2013-06-26 04:45:00,72.1,70.6,29.80,SW,221,6.0,6.0,95,0.00,,,0.01,Wunderground v.1.15,2013-06-26 09:45:00,
2013-06-26 04:50:00,72.1,70.6,29.80,SSW,205,5.0,5.0,95,0.00,,,0.01,Wunderground v.1.15,2013-06-26 09:50:00,
2013-06-26 04:55:00,72.2,70.7,29.80,SSW,205,5.0,5.0,95,0.00,,,0.01,Wunderground v.1.15,2013-06-26 09:55:00,
2013-06-26 05:00:00,72.3,70.8,29.80,SSW,209,5.0,6.0,95,0.00,,,0.01,Wunderground v.1.15,2013-06-26 10:00:00,
2013-06-26 05:05:00,72.3,70.8,29.79,South,188,5.0,6.0,95,0.00,,,0.01,Wunderground v.1.15,2013-06-26 10:05:00,
2013-06-26 05:10:00,72.4,70.9,29.79,SSW,202,5.0,5.0,95,0.00,,,0.01,Wunderground v.1.15,2013-06-26 10:10:00,
2013-06-26 05:15:00,72.4,70.9,29.79,South,185,5.0,5.0,95,0.00,,,0.01,Wunderground v.1.15,2013-06-26 10:15:00,
2013-06-26 05:20:00,72.4,70.9,29.80,SW,234,5.0,5.0,95,0.00,,,0.01,Wunderground v.1.15,2013-06-26 10:20:00,
2013-06-26 05:25:00,72.5,71.0,29.80,SSW,205,5.0,5.0,95,0.00,,,0.01,Wunderground v.1.15,2013-06-26 10:25:00,
2013-06-26 05:30:00,72.5,71.0,29.79,SSW,210,5.0,5.0,95,0.00,,,0.01,Wunderground v.1.15,2013-06-26 10:30:00,
2013-06-26 05:40:00,72.4,70.9,29.79,SSW,206,5.0,5.0,95,0.00,,,0.01,Wunderground v.1.15,2013-06-26 10:40:00,
2013-06-26 05:45:00,72.5,71.0,29.79,WSW,238,5.0,5.0,95,0.00,,,0.01,Wunderground v.1.15,2013-06-26 10:45:00,
2013-06-26 05:50:00,72.5,71.0,29.79,SSW,196,6.0,6.0,95,0.00,,,0.01,Wunderground v.1.15,2013-06-26 10:50:00,
2013-06-26 05:55:00,72.5,71.0,29.78,SW,217,5.0,6.0,95,0.00,,,0.01,Wunderground v.1.15,2013-06-26 10:55:00,
2013-06-26 06:00:00,72.5,71.0,29.78,SW,225,5.0,7.0,95,0.00,,,0.01,Wunderground v.1.15,2013-06-26 11:00:00,
2013-06-26 06:10:00,72.7,71.2,29.78,SW,225,6.0,6.0,95,0.00,,,0.01,Wunderground v.1.15,2013-06-26 11:10:00,
2013-06-26 06:15:00,72.7,71.2,29.78,SW,219,5.0,6.0,95,0.00,,,0.01,Wunderground v.1.15,2013-06-26 11:15:00,
2013-06-26 06:20:00,72.7,71.2,29.78,SSW,207,5.0,5.0,95,0.00,,,0.01,Wunderground v.1.15,2013-06-26 11:20:00,
2013-06-26 06:25:00,72.7,71.2,29.79,SSW,211,5.0,5.0,95,0.00,,,0.01,Wunderground v.1.15,2013-06-26 11:25:00,
2013-06-26 06:30:00,72.8,71.3,29.79,SSW,212,5.0,5.0,95,0.00,,,0.01,Wunderground v.1.15,2013-06-26 11:30:00,
2013-06-26 06:35:00,72.8,71.3,29.79,SW,221,5.0,5.0,95,0.00,,,0.01,Wunderground v.1.15,2013-06-26 11:35:00,
2013-06-26 06:45:00,72.8,71.3,29.79,SW,229,4.0,7.0,95,0.00,,,0.01,Wunderground v.1.15,2013-06-26 11:45:00,
2013-06-26 06:50:00,72.9,71.4,29.80,SW,225,4.0,4.0,95,0.00,,,0.01,Wunderground v.1.15,2013-06-26 11:50:00,
2013-06-26 06:55:00,72.9,71.4,29.80,SW,227,4.0,4.0,95,0.00,,,0.01,Wunderground v.1.15,2013-06-26 11:55:00,
2013-06-26 07:00:00,73.0,71.5,29.80,SW,227,4.0,7.0,95,0.00,,,0.01,Wunderground v.1.15,2013-06-26 12:00:00,
2013-06-26 07:05:00,73.0,71.5,29.80,SW,230,4.0,7.0,95,0.00,,,0.01,Wunderground v.1.15,2013-06-26 12:05:00,
2013-06-26 07:14:00,73.0,71.5,29.79,SW,221,4.0,4.0,95,0.00,,,0.01,Wunderground v.1.15,2013-06-26 12:14:00,
2013-06-26 07:20:00,73.1,71.6,29.79,SW,217,4.0,4.0,95,0.00,,,0.01,Wunderground v.1.15,2013-06-26 12:20:00,
2013-06-26 07:25:00,73.2,71.7,29.80,SW,217,3.0,4.0,95,0.00,,,0.01,Wunderground v.1.15,2013-06-26 12:25:00,
2013-06-26 07:30:00,73.2,71.7,29.81,SW,221,3.0,4.0,95,0.00,,,0.01,Wunderground v.1.15,2013-06-26 12:30:00,
2013-06-26 07:35:00,73.3,71.8,29.81,SW,232,5.0,6.0,95,0.00,,,0.01,Wunderground v.1.15,2013-06-26 12:35:00,
2013-06-26 07:40:00,73.4,71.9,29.80,SW,219,5.0,5.0,95,0.00,,,0.01,Wunderground v.1.15,2013-06-26 12:40:00,
2013-06-26 07:45:00,73.5,72.0,29.81,SW,227,5.0,6.0,95,0.00,,,0.01,Wunderground v.1.15,2013-06-26 12:45:00,
2013-06-26 07:50:00,73.6,72.1,29.80,SW,215,5.0,5.0,95,0.00,,,0.01,Wunderground v.1.15,2013-06-26 12:50:00,
2013-06-26 08:10:00,72.4,70.9,29.83,SSW,198,6.0,6.0,95,0.42,,,0.41,Wunderground v.1.15,2013-06-26 13:10:00,
2013-06-26 08:15:00,72.2,70.7,29.82,West,275,4.0,6.0,95,0.09,,,0.41,Wunderground v.1.15,2013-06-26 13:15:00,
2013-06-26 08:25:00,71.7,69.9,29.82,NNE,28,3.0,8.0,94,0.04,,,0.41,Wunderground v.1.15,2013-06-26 13:25:00,
2013-06-26 08:30:00,71.2,69.1,29.81,NNE,30,4.0,4.0,93,0.00,,,0.41,Wunderground v.1.15,2013-06-26 13:30:00,
2013-06-26 08:35:00,70.7,68.6,29.81,NE,40,3.0,4.0,93,0.00,,,0.41,Wunderground v.1.15,2013-06-26 13:35:00,
2013-06-26 08:40:00,70.3,68.5,29.80,NE,40,2.0,3.0,94,0.00,,,0.41,Wunderground v.1.15,2013-06-26 13:40:00,
2013-06-26 08:45:00,69.9,67.8,29.80,NE,40,1.0,3.0,93,0.00,,,0.41,Wunderground v.1.15,2013-06-26 13:45:00,
2013-06-26 08:50:00,69.6,67.5,29.80,NE,40,1.0,1.0,93,0.00,,,0.42,Wunderground v.1.15,2013-06-26 13:50:00,
2013-06-26 09:00:00,68.9,67.1,29.77,NE,40,1.0,1.0,94,0.00,,,0.42,Wunderground v.1.15,2013-06-26 14:00:00,
2013-06-26 09:05:00,68.7,66.9,29.76,NE,40,1.0,3.0,94,0.00,,,0.42,Wunderground v.1.15,2013-06-26 14:05:00,
2013-06-26 09:10:00,68.4,66.6,29.77,NE,40,1.0,1.0,94,0.00,,,0.42,Wunderground v.1.15,2013-06-26 14:10:00,
2013-06-26 09:15:00,68.3,66.5,29.78,NE,40,0.0,3.0,94,0.00,,,0.42,Wunderground v.1.15,2013-06-26 14:15:00,
2013-06-26 09:20:00,68.2,66.4,29.78,ESE,120,0.0,4.0,94,0.00,,,0.42,Wunderground v.1.15,2013-06-26 14:20:00,
2013-06-26 09:30:00,68.1,66.6,29.79,SSE,155,2.0,3.0,95,0.00,,,0.42,Wunderground v.1.15,2013-06-26 14:30:00,
2013-06-26 09:35:00,68.0,66.5,29.78,South,184,2.0,3.0,95,0.00,,,0.42,Wunderground v.1.15,2013-06-26 14:35:00,
2013-06-26 09:40:00,68.0,66.5,29.78,South,176,2.0,2.0,95,0.00,,,0.42,Wunderground v.1.15,2013-06-26 14:40:00,
2013-06-26 09:45:00,68.1,66.9,29.78,South,176,0.0,3.0,96,0.00,,,0.42,Wunderground v.1.15,2013-06-26 14:45:00,
2013-06-26 09:50:00,68.2,67.0,29.78,South,176,0.0,3.0,96,0.00,,,0.42,Wunderground v.1.15,2013-06-26 14:50:00,
2013-06-26 09:55:00,68.3,67.1,29.76,South,176,0.0,3.0,96,0.00,,,0.42,Wunderground v.1.15,2013-06-26 14:55:00,
2013-06-26 10:04:00,68.5,67.3,29.73,South,178,3.0,4.0,96,0.00,,,0.42,Wunderground v.1.15,2013-06-26 15:04:00,
2013-06-26 10:09:00,68.7,67.5,29.75,South,180,3.0,3.0,96,0.00,,,0.42,Wunderground v.1.15,2013-06-26 15:09:00,
2013-06-26 10:14:00,69.1,68.2,29.78,South,180,1.0,3.0,97,0.00,,,0.42,Wunderground v.1.15,2013-06-26 15:14:00,
2013-06-26 10:19:00,69.5,68.6,29.79,South,180,0.0,3.0,97,0.00,,,0.42,Wunderground v.1.15,2013-06-26 15:19:00,
2013-06-26 10:24:00,69.8,68.9,29.79,South,183,0.0,3.0,97,0.00,,,0.42,Wunderground v.1.15,2013-06-26 15:24:00,
2013-06-26 10:30:00,70.1,69.2,29.79,South,191,0.0,3.0,97,0.00,,,0.42,Wunderground v.1.15,2013-06-26 15:30:00,
2013-06-26 10:35:00,70.4,69.5,29.78,South,191,0.0,3.0,97,0.00,,,0.42,Wunderground v.1.15,2013-06-26 15:35:00,
2013-06-26 10:40:00,70.8,69.9,29.78,South,191,0.0,3.0,97,0.00,,,0.42,Wunderground v.1.15,2013-06-26 15:40:00,
2013-06-26 10:45:00,70.8,69.6,29.77,SSW,198,1.0,4.0,96,0.00,,,0.42,Wunderground v.1.15,2013-06-26 15:45:00,
2013-06-26 10:50:00,70.6,69.4,29.77,SSW,202,3.0,3.0,96,0.00,,,0.42,Wunderground v.1.15,2013-06-26 15:50:00,
2013-06-26 10:55:00,70.8,69.6,29.78,SSW,202,1.0,3.0,96,0.00,,,0.42,Wunderground v.1.15,2013-06-26 15:55:00,
2013-06-26 11:05:00,71.6,70.4,29.77,SSW,202,0.0,3.0,96,0.00,,,0.42,Wunderground v.1.15,2013-06-26 16:05:00,
2013-06-26 11:10:00,72.2,71.0,29.78,SSW,202,0.0,3.0,96,0.00,,,0.42,Wunderground v.1.15,2013-06-26 16:10:00,
2013-06-26 11:15:00,73.1,71.9,29.78,SSW,202,1.0,3.0,96,0.00,,,0.42,Wunderground v.1.15,2013-06-26 16:15:00,
2013-06-26 11:20:00,73.7,72.5,29.78,SSW,205,2.0,3.0,96,0.00,,,0.42,Wunderground v.1.15,2013-06-26 16:20:00,
2013-06-26 11:25:00,74.8,73.3,29.78,SSW,198,2.0,3.0,95,0.00,,,0.42,Wunderground v.1.15,2013-06-26 16:25:00,
2013-06-26 11:30:00,75.7,74.2,29.78,SW,215,2.0,2.0,95,0.00,,,0.42,Wunderground v.1.15,2013-06-26 16:30:00,
2013-06-26 11:40:00,77.5,75.0,29.78,SSW,211,3.0,3.0,92,0.00,,,0.42,Wunderground v.1.15,2013-06-26 16:40:00,
2013-06-26 11:45:00,78.3,75.5,29.78,SW,221,4.0,4.0,91,0.00,,,0.42,Wunderground v.1.15,2013-06-26 16:45:00,
2013-06-26 11:50:00,79.0,75.8,29.78,SSW,203,4.0,6.0,90,0.00,,,0.42,Wunderground v.1.15,2013-06-26 16:50:00,
2013-06-26 11:55:00,79.7,76.2,29.79,SW,214,5.0,6.0,89,0.00,,,0.42,Wunderground v.1.15,2013-06-26 16:55:00,
2013-06-26 12:00:00,80.3,76.1,29.79,SSW,212,5.0,5.0,87,0.00,,,0.42,Wunderground v.1.15,2013-06-26 17:00:00,
2013-06-26 12:10:00,80.9,75.6,29.79,SW,218,6.0,6.0,84,0.00,,,0.42,Wunderground v.1.15,2013-06-26 17:10:00,
2013-06-26 12:15:00,80.9,76.3,29.80,SSW,209,6.0,6.0,86,0.00,,,0.42,Wunderground v.1.15,2013-06-26 17:15:00,
2013-06-26 12:20:00,80.8,75.5,29.80,SW,229,5.0,5.0,84,0.00,,,0.42,Wunderground v.1.15,2013-06-26 17:20:00,
2013-06-26 12:25:00,80.7,75.1,29.79,SSW,211,4.0,5.0,83,0.00,,,0.42,Wunderground v.1.15,2013-06-26 17:25:00,
2013-06-26 12:30:00,80.5,74.9,29.79,SW,230,4.0,4.0,83,0.00,,,0.42,Wunderground v.1.15,2013-06-26 17:30:00,
2013-06-26 12:35:00,80.3,74.7,29.79,SSW,213,4.0,4.0,83,0.00,,,0.42,Wunderground v.1.15,2013-06-26 17:35:00,
2013-06-26 12:40:00,80.2,74.9,29.79,SSW,211,3.0,7.0,84,0.00,,,0.42,Wunderground v.1.15,2013-06-26 17:40:00,
2013-06-26 12:45:00,80.2,74.6,29.79,SSW,210,4.0,7.0,83,0.00,,,0.42,Wunderground v.1.15,2013-06-26 17:45:00,
2013-06-26 12:50:00,80.3,75.0,29.79,SSW,213,5.0,5.0,84,0.00,,,0.42,Wunderground v.1.15,2013-06-26 17:50:00,
2013-06-26 12:55:00,80.4,74.8,29.79,SW,214,4.0,5.0,83,0.00,,,0.42,Wunderground v.1.15,2013-06-26 17:55:00,
2013-06-26 13:00:00,80.5,75.2,29.78,SSW,202,3.0,3.0,84,0.00,,,0.42,Wunderground v.1.15,2013-06-26 18:00:00,
2013-06-26 13:10:00,80.3,75.0,29.78,SSW,208,4.0,4.0,84,0.00,,,0.42,Wunderground v.1.15,2013-06-26 18:10:00,
2013-06-26 13:15:00,80.6,74.6,29.78,SW,215,4.0,4.0,82,0.00,,,0.42,Wunderground v.1.15,2013-06-26 18:15:00,
2013-06-26 13:20:00,80.7,75.8,29.78,SSW,213,3.0,4.0,85,0.00,,,0.42,Wunderground v.1.15,2013-06-26 18:20:00,
2013-06-26 13:25:00,81.2,75.9,29.78,SW,216,2.0,4.0,84,0.00,,,0.42,Wunderground v.1.15,2013-06-26 18:25:00,
2013-06-26 13:30:00,82.1,77.5,29.77,SW,234,2.0,2.0,86,0.00,,,0.42,Wunderground v.1.15,2013-06-26 18:30:00,
2013-06-26 13:35:00,82.6,76.5,29.77,SW,236,1.0,3.0,82,0.00,,,0.42,Wunderground v.1.15,2013-06-26 18:35:00,
2013-06-26 13:45:00,81.6,74.8,29.77,SW,228,3.0,4.0,80,0.00,,,0.42,Wunderground v.1.15,2013-06-26 18:45:00,
2013-06-26 13:50:00,81.8,75.8,29.76,SW,221,2.0,5.0,82,0.00,,,0.42,Wunderground v.1.15,2013-06-26 18:50:00,
2013-06-26 13:55:00,81.8,76.1,29.76,SW,225,3.0,5.0,83,0.00,,,0.42,Wunderground v.1.15,2013-06-26 18:55:00,
2013-06-26 14:00:00,81.4,75.4,29.75,SW,215,5.0,8.0,82,0.00,,,0.42,Wunderground v.1.15,2013-06-26 19:00:00,
2013-06-26 14:05:00,81.4,77.2,29.75,SW,214,4.0,8.0,87,0.00,,,0.42,Wunderground v.1.15,2013-06-26 19:05:00,
2013-06-26 14:10:00,82.0,76.3,29.75,SW,216,3.0,8.0,83,0.00,,,0.42,Wunderground v.1.15,2013-06-26 19:10:00,
2013-06-26 14:20:00,82.4,76.7,29.76,SSW,202,4.0,5.0,83,0.00,,,0.42,Wunderground v.1.15,2013-06-26 19:20:00,
2013-06-26 14:25:00,82.5,77.5,29.76,SW,217,3.0,5.0,85,0.00,,,0.42,Wunderground v.1.15,2013-06-26 19:25:00,
2013-06-26 14:30:00,82.9,77.2,29.76,SSW,213,3.0,3.0,83,0.00,,,0.42,Wunderground v.1.15,2013-06-26 19:30:00,
2013-06-26 14:35:00,83.0,78.0,29.76,SSW,211,1.0,3.0,85,0.00,,,0.42,Wunderground v.1.15,2013-06-26 19:35:00,
2013-06-26 14:40:00,83.7,78.3,29.76,SSW,211,0.0,3.0,84,0.00,,,0.42,Wunderground v.1.15,2013-06-26 19:40:00,
2013-06-26 14:50:00,84.1,76.9,29.76,SSW,205,4.0,4.0,79,0.00,,,0.42,Wunderground v.1.15,2013-06-26 19:50:00,
2013-06-26 14:55:00,83.8,77.3,29.76,SW,216,4.0,4.0,81,0.00,,,0.42,Wunderground v.1.15,2013-06-26 19:55:00,
2013-06-26 15:00:00,83.9,77.1,29.76,SW,218,4.0,5.0,80,0.00,,,0.42,Wunderground v.1.15,2013-06-26 20:00:00,
2013-06-26 15:05:00,83.8,77.0,29.76,SSW,201,4.0,5.0,80,0.00,,,0.42,Wunderground v.1.15,2013-06-26 20:05:00,
2013-06-26 15:10:00,83.8,77.7,29.76,SSW,199,2.0,3.0,82,0.00,,,0.42,Wunderground v.1.15,2013-06-26 20:10:00,
2013-06-26 15:15:00,84.0,77.5,29.76,SSW,206,1.0,3.0,81,0.00,,,0.42,Wunderground v.1.15,2013-06-26 20:15:00,
2013-06-26 15:25:00,84.7,77.8,29.76,SW,215,1.0,3.0,80,0.00,,,0.42,Wunderground v.1.15,2013-06-26 20:25:00,
2013-06-26 15:30:00,85.1,77.5,29.76,SW,223,0.0,3.0,78,0.00,,,0.42,Wunderground v.1.15,2013-06-26 20:30:00,
2013-06-26 15:35:00,85.4,78.5,29.77,SW,231,1.0,3.0,80,0.00,,,0.42,Wunderground v.1.15,2013-06-26 20:35:00,
2013-06-26 15:40:00,85.8,78.1,29.76,SW,232,1.0,1.0,78,0.00,,,0.42,Wunderground v.1.15,2013-06-26 20:40:00,
2013-06-26 15:45:00,86.3,78.6,29.76,WSW,238,0.0,3.0,78,0.00,,,0.42,Wunderground v.1.15,2013-06-26 20:45:00,
2013-06-26 15:55:00,86.3,76.6,29.75,WSW,240,0.0,3.0,73,0.00,,,0.42,Wunderground v.1.15,2013-06-26 20:55:00,
2013-06-26 16:00:00,86.1,77.6,29.74,WSW,240,0.0,3.0,76,0.00,,,0.42,Wunderground v.1.15,2013-06-26 21:00:00,
2013-06-26 16:05:00,86.3,79.0,29.74,WSW,240,0.0,3.0,79,0.00,,,0.42,Wunderground v.1.15,2013-06-26 21:05:00,
2013-06-26 16:10:00,86.4,77.1,29.74,WSW,240,0.0,3.0,74,0.00,,,0.42,Wunderground v.1.15,2013-06-26 21:10:00,
2013-06-26 16:15:00,86.5,78.4,29.73,WSW,240,1.0,3.0,77,0.00,,,0.42,Wunderground v.1.15,2013-06-26 21:15:00,
2013-06-26 16:20:00,86.3,78.2,29.74,WSW,240,1.0,3.0,77,0.00,,,0.42,Wunderground v.1.15,2013-06-26 21:20:00,
2013-06-26 16:30:00,86.5,78.0,29.74,WSW,240,0.0,3.0,76,0.00,,,0.42,Wunderground v.1.15,2013-06-26 21:30:00,
2013-06-26 16:35:00,86.8,79.5,29.73,WSW,240,0.0,3.0,79,0.00,,,0.42,Wunderground v.1.15,2013-06-26 21:35:00,
2013-06-26 16:40:00,86.9,77.2,29.73,WSW,241,0.0,3.0,73,0.00,,,0.42,Wunderground v.1.15,2013-06-26 21:40:00,
2013-06-26 16:45:00,86.6,78.1,29.73,West,265,0.0,3.0,76,0.00,,,0.42,Wunderground v.1.15,2013-06-26 21:45:00,
2013-06-26 16:50:00,86.8,78.7,29.73,West,264,0.0,3.0,77,0.00,,,0.42,Wunderground v.1.15,2013-06-26 21:50:00,
2013-06-26 17:00:00,86.3,77.8,29.73,West,259,0.0,3.0,76,0.00,,,0.42,Wunderground v.1.15,2013-06-26 22:00:00,
2013-06-26 17:05:00,86.0,77.9,29.73,West,259,0.0,3.0,77,0.00,,,0.42,Wunderground v.1.15,2013-06-26 22:05:00,
2013-06-26 17:10:00,85.6,77.6,29.74,West,259,0.0,3.0,77,0.00,,,0.42,Wunderground v.1.15,2013-06-26 22:10:00,
2013-06-26 17:15:00,85.2,77.6,29.74,WNW,289,1.0,3.0,78,0.00,,,0.42,Wunderground v.1.15,2013-06-26 22:15:00,
2013-06-26 17:20:00,85.0,77.4,29.74,WNW,289,1.0,1.0,78,0.00,,,0.42,Wunderground v.1.15,2013-06-26 22:20:00,
2013-06-26 17:25:00,85.2,77.9,29.74,WNW,290,0.0,3.0,79,0.00,,,0.42,Wunderground v.1.15,2013-06-26 22:25:00,
2013-06-26 17:35:00,85.1,76.7,29.73,WNW,291,1.0,3.0,76,0.00,,,0.42,Wunderground v.1.15,2013-06-26 22:35:00,
2013-06-26 17:40:00,84.8,77.2,29.73,WNW,291,0.0,3.0,78,0.00,,,0.42,Wunderground v.1.15,2013-06-26 22:40:00,
2013-06-26 17:45:00,84.5,76.5,29.74,WNW,292,0.0,3.0,77,0.00,,,0.42,Wunderground v.1.15,2013-06-26 22:45:00,
2013-06-26 17:50:00,84.1,76.5,29.74,WNW,292,0.0,3.0,78,0.00,,,0.42,Wunderground v.1.15,2013-06-26 22:50:00,
2013-06-26 17:55:00,83.9,76.7,29.74,WNW,292,0.0,3.0,79,0.00,,,0.42,Wunderground v.1.15,2013-06-26 22:55:00,
2013-06-26 18:00:00,83.9,77.1,29.74,WNW,292,0.0,3.0,80,0.00,,,0.42,Wunderground v.1.15,2013-06-26 23:00:00,
2013-06-26 18:05:00,83.8,76.2,29.74,WNW,292,0.0,3.0,78,0.00,,,0.42,Wunderground v.1.15,2013-06-26 23:05:00,
2013-06-26 18:10:00,83.8,77.0,29.74,WNW,292,0.0,3.0,80,0.00,,,0.42,Wunderground v.1.15,2013-06-26 23:10:00,
2013-06-26 18:15:00,83.7,76.5,29.74,WNW,292,0.0,3.0,79,0.00,,,0.42,Wunderground v.1.15,2013-06-26 23:15:00,
2013-06-26 18:20:00,83.4,76.6,29.74,WNW,292,0.0,3.0,80,0.00,,,0.42,Wunderground v.1.15,2013-06-26 23:20:00,
2013-06-26 18:25:00,83.6,76.8,29.74,WNW,292,0.0,3.0,80,0.00,,,0.42,Wunderground v.1.15,2013-06-26 23:25:00,
2013-06-26 18:35:00,84.0,76.4,29.74,WNW,298,0.0,3.0,78,0.00,,,0.42,Wunderground v.1.15,2013-06-26 23:35:00,
2013-06-26 18:40:00,84.1,76.9,29.74,WNW,298,0.0,3.0,79,0.00,,,0.42,Wunderground v.1.15,2013-06-26 23:40:00,
2013-06-26 18:45:00,84.2,76.6,29.74,WNW,298,0.0,3.0,78,0.00,,,0.42,Wunderground v.1.15,2013-06-26 23:45:00,
2013-06-26 18:50:00,84.1,76.5,29.74,WNW,298,0.0,3.0,78,0.00,,,0.42,Wunderground v.1.15,2013-06-26 23:50:00,
2013-06-26 18:55:00,83.8,76.6,29.75,WNW,298,0.0,3.0,79,0.00,,,0.42,Wunderground v.1.15,2013-06-26 23:55:00,
2013-06-26 19:00:00,83.6,76.4,29.74,WNW,298,0.0,3.0,79,0.00,,,0.42,Wunderground v.1.15,2013-06-27 00:00:00,
2013-06-26 19:10:00,82.9,75.7,29.74,WNW,298,0.0,3.0,79,0.00,,,0.42,Wunderground v.1.15,2013-06-27 00:10:00,
2013-06-26 19:15:00,82.8,76.0,29.74,WNW,298,0.0,3.0,80,0.00,,,0.42,Wunderground v.1.15,2013-06-27 00:15:00,
2013-06-26 19:20:00,82.8,76.0,29.74,WNW,298,0.0,3.0,80,0.00,,,0.42,Wunderground v.1.15,2013-06-27 00:20:00,
2013-06-26 19:25:00,82.8,75.6,29.74,WNW,298,0.0,3.0,79,0.00,,,0.42,Wunderground v.1.15,2013-06-27 00:25:00,
2013-06-26 19:35:00,83.0,76.6,29.74,WNW,298,0.0,3.0,81,0.00,,,0.42,Wunderground v.1.15,2013-06-27 00:35:00,
2013-06-26 19:40:00,82.8,76.4,29.74,WNW,298,0.0,3.0,81,0.00,,,0.42,Wunderground v.1.15,2013-06-27 00:40:00,
2013-06-26 19:45:00,82.5,76.1,29.74,WNW,298,0.0,3.0,81,0.00,,,0.42,Wunderground v.1.15,2013-06-27 00:45:00,
2013-06-26 19:50:00,82.2,76.2,29.73,WNW,298,0.0,3.0,82,0.00,,,0.42,Wunderground v.1.15,2013-06-27 00:50:00,
2013-06-26 19:55:00,81.9,75.9,29.73,WNW,298,0.0,3.0,82,0.00,,,0.42,Wunderground v.1.15,2013-06-27 00:55:00,
2013-06-26 20:00:00,81.3,75.6,29.74,WNW,298,0.0,3.0,83,0.00,,,0.42,Wunderground v.1.15,2013-06-27 01:00:00,
2013-06-26 20:05:00,80.7,75.8,29.74,WNW,298,0.0,3.0,85,0.00,,,0.42,Wunderground v.1.15,2013-06-27 01:05:00,
2013-06-26 20:14:00,79.9,75.7,29.73,WNW,298,0.0,3.0,87,0.00,,,0.42,Wunderground v.1.15,2013-06-27 01:14:00,
2013-06-26 20:20:00,79.5,75.6,29.73,WNW,298,0.0,3.0,88,0.00,,,0.42,Wunderground v.1.15,2013-06-27 01:20:00,
2013-06-26 20:25:00,79.1,75.6,29.74,WNW,298,0.0,3.0,89,0.00,,,0.42,Wunderground v.1.15,2013-06-27 01:25:00,
2013-06-26 20:29:00,78.6,75.1,29.74,WNW,298,0.0,3.0,89,0.00,,,0.42,Wunderground v.1.15,2013-06-27 01:29:00,
2013-06-26 20:34:00,78.3,75.1,29.74,WNW,298,0.0,3.0,90,0.00,,,0.42,Wunderground v.1.15,2013-06-27 01:34:00,
2013-06-26 20:40:00,77.9,74.7,29.74,WNW,298,0.0,3.0,90,0.00,,,0.42,Wunderground v.1.15,2013-06-27 01:40:00,
2013-06-26 20:45:00,77.5,74.7,29.74,WNW,298,0.0,3.0,91,0.00,,,0.42,Wunderground v.1.15,2013-06-27 01:45:00,
2013-06-26 20:50:00,77.2,74.4,29.74,WNW,298,0.0,3.0,91,0.00,,,0.42,Wunderground v.1.15,2013-06-27 01:50:00,
2013-06-26 20:55:00,77.0,74.5,29.75,WNW,298,0.0,3.0,92,0.00,,,0.42,Wunderground v.1.15,2013-06-27 01:55:00,
2013-06-26 21:00:00,76.7,74.2,29.75,WNW,298,0.0,3.0,92,0.00,,,0.42,Wunderground v.1.15,2013-06-27 02:00:00,
2013-06-26 21:05:00,76.6,74.4,29.75,WNW,298,0.0,3.0,93,0.00,,,0.42,Wunderground v.1.15,2013-06-27 02:05:00,
2013-06-26 21:15:00,76.2,74.3,29.75,WNW,298,0.0,3.0,94,0.00,,,0.42,Wunderground v.1.15,2013-06-27 02:15:00,
2013-06-26 21:20:00,76.1,74.2,29.75,WNW,298,0.0,3.0,94,0.00,,,0.42,Wunderground v.1.15,2013-06-27 02:20:00,
2013-06-26 21:25:00,75.9,74.0,29.76,WNW,298,0.0,3.0,94,0.00,,,0.42,Wunderground v.1.15,2013-06-27 02:25:00,
2013-06-26 21:30:00,75.7,73.8,29.76,WNW,298,0.0,3.0,94,0.00,,,0.42,Wunderground v.1.15,2013-06-27 02:30:00,
2013-06-26 21:40:00,75.6,74.1,29.76,WNW,298,0.0,3.0,95,0.00,,,0.42,Wunderground v.1.15,2013-06-27 02:40:00,
2013-06-26 21:50:00,75.6,74.4,29.76,WNW,299,1.0,3.0,96,0.00,,,0.42,Wunderground v.1.15,2013-06-27 02:50:00,
2013-06-26 21:55:00,75.6,74.4,29.76,WNW,299,1.0,3.0,96,0.00,,,0.42,Wunderground v.1.15,2013-06-27 02:55:00,
2013-06-26 22:00:00,75.5,74.0,29.76,WNW,299,0.0,3.0,95,0.00,,,0.42,Wunderground v.1.15,2013-06-27 03:00:00,
2013-06-26 22:05:00,75.3,73.8,29.76,WNW,299,0.0,3.0,95,0.00,,,0.42,Wunderground v.1.15,2013-06-27 03:05:00,
2013-06-26 22:14:00,75.1,73.9,29.77,WNW,299,0.0,3.0,96,0.00,,,0.42,Wunderground v.1.15,2013-06-27 03:14:00,
2013-06-26 22:19:00,75.0,73.8,29.77,WNW,299,0.0,3.0,96,0.00,,,0.42,Wunderground v.1.15,2013-06-27 03:19:00,
2013-06-26 22:24:00,74.9,73.7,29.77,WNW,299,0.0,3.0,96,0.00,,,0.42,Wunderground v.1.15,2013-06-27 03:24:00,
2013-06-26 22:29:00,74.8,73.6,29.77,WNW,299,0.0,3.0,96,0.00,,,0.42,Wunderground v.1.15,2013-06-27 03:29:00,
2013-06-26 22:34:00,74.7,73.5,29.77,WNW,299,0.0,3.0,96,0.00,,,0.42,Wunderground v.1.15,2013-06-27 03:34:00,
2013-06-26 22:39:00,74.6,73.4,29.77,WNW,299,0.0,3.0,96,0.00,,,0.42,Wunderground v.1.15,2013-06-27 03:39:00,
2013-06-26 22:44:00,74.4,73.2,29.77,WNW,299,0.0,3.0,96,0.00,,,0.42,Wunderground v.1.15,2013-06-27 03:44:00,
2013-06-26 22:50:00,74.2,73.0,29.78,WNW,299,0.0,3.0,96,0.00,,,0.42,Wunderground v.1.15,2013-06-27 03:50:00,
2013-06-26 22:55:00,74.2,73.0,29.78,WNW,299,0.0,3.0,96,0.00,,,0.42,Wunderground v.1.15,2013-06-27 03:55:00,
2013-06-26 23:00:00,74.0,72.8,29.77,WNW,299,0.0,3.0,96,0.00,,,0.42,Wunderground v.1.15,2013-06-27 04:00:00,
2013-06-26 23:05:00,74.0,72.8,29.78,WNW,299,0.0,3.0,96,0.00,,,0.42,Wunderground v.1.15,2013-06-27 04:05:00,
2013-06-26 23:10:00,74.0,72.8,29.78,WNW,299,0.0,3.0,96,0.00,,,0.42,Wunderground v.1.15,2013-06-27 04:10:00,
2013-06-26 23:15:00,73.8,72.6,29.78,WNW,299,0.0,3.0,96,0.00,,,0.42,Wunderground v.1.15,2013-06-27 04:15:00,
2013-06-26 23:20:00,73.6,72.4,29.78,WNW,299,0.0,3.0,96,0.00,,,0.42,Wunderground v.1.15,2013-06-27 04:20:00,
2013-06-26 23:25:00,73.5,72.3,29.79,WNW,299,0.0,3.0,96,0.00,,,0.42,Wunderground v.1.15,2013-06-27 04:25:00,
2013-06-26 23:30:00,73.3,72.1,29.79,WNW,300,0.0,3.0,96,0.00,,,0.42,Wunderground v.1.15,2013-06-27 04:30:00,
2013-06-26 23:35:00,73.2,72.3,29.80,WNW,300,0.0,3.0,97,0.00,,,0.42,Wunderground v.1.15,2013-06-27 04:35:00,
2013-06-26 23:40:00,73.2,72.3,29.80,WNW,300,0.0,3.0,97,0.00,,,0.42,Wunderground v.1.15,2013-06-27 04:40:00,
2013-06-26 23:45:00,73.2,72.3,29.80,WNW,300,0.0,3.0,97,0.00,,,0.42,Wunderground v.1.15,2013-06-27 04:45:00,
2013-06-26 23:55:00,73.3,72.4,29.79,WNW,300,0.0,3.0,97,0.00,,,0.42,Wunderground v.1.15,2013-06-27 04:55:00,